Time;durP1;ratioP1;P1;durP2;ratioP2;P2;SDS_P1;SDS_P2;PMS_P1;PMS_P2;Temp;Humidity;BMP_temperature;BMP_pressure;BME280_temperature;BME280_humidity;BME280_pressure;Samples;Min_cycle;Max_cycle;Signal;HPM_P1;HPM_P2
2023/06/19 00:01:39;;;;;;;4.43;3.47;;;;;;;;;;5054004;28;20033;-61
2023/06/19 00:04:04;;;;;;;3.80;3.17;;;;;;;;;;5046275;28;20122;-61
2023/06/19 00:06:29;;;;;;;4.30;3.40;;;;;;;;;;5044716;28;20064;-61
2023/06/19 00:08:55;;;;;;;3.83;3.00;;;;;;;;;;5062955;28;20278;-61
2023/06/19 00:11:20;;;;;;;3.43;2.87;;;;;;;;;;5051790;28;20037;-61
2023/06/19 00:13:45;;;;;;;3.63;3.00;;;;;;;;;;5056395;28;20666;-62
2023/06/19 00:16:11;;;;;;;4.03;3.20;;;;;;;;;;5060852;28;20289;-63
2023/06/19 00:18:39;;;;;;;3.67;2.83;;;;;;;;;;5054780;28;20301;-61
2023/06/19 00:21:05;;;;;;;4.30;2.90;;;;;;;;;;5060668;28;20044;-61
2023/06/19 00:23:30;;;;;;;3.28;2.83;;;;;;;;;;5054479;28;20033;-61
2023/06/19 00:25:56;;;;;;;5.03;3.63;;;;;;;;;;5060492;28;20043;-61
2023/06/19 00:28:21;;;;;;;3.90;3.03;;;;;;;;;;5062718;28;20029;-61
2023/06/19 00:30:46;;;;;;;3.47;2.83;;;;;;;;;;5066116;28;20039;-61
2023/06/19 00:33:11;;;;;;;4.07;2.95;;;;;;;;;;5048421;28;20061;-61
2023/06/19 00:35:37;;;;;;;4.60;2.80;;;;;;;;;;5050231;28;20037;-60
2023/06/19 00:38:02;;;;;;;4.27;3.03;;;;;;;;;;5057306;28;20624;-61
2023/06/19 00:40:28;;;;;;;3.72;2.80;;;;;;;;;;5062430;28;20050;-61
2023/06/19 00:42:53;;;;;;;3.58;3.22;;;;;;;;;;5062990;28;20090;-61
2023/06/19 00:45:19;;;;;;;3.55;2.70;;;;;;;;;;5040215;28;20029;-61
2023/06/19 00:47:44;;;;;;;4.10;3.20;;;;;;;;;;5051176;28;20055;-61
2023/06/19 00:50:09;;;;;;;3.70;3.15;;;;;;;;;;5039541;28;21106;-61
2023/06/19 00:52:35;;;;;;;4.60;3.00;;;;;;;;;;5051149;28;20037;-61
2023/06/19 00:55:00;;;;;;;5.15;2.95;;;;;;;;;;5049777;28;20052;-61
2023/06/19 00:57:25;;;;;;;4.55;2.90;;;;;;;;;;5051636;28;20519;-61
2023/06/19 00:59:51;;;;;;;4.23;3.00;;;;;;;;;;5035069;28;20759;-61
2023/06/19 01:02:16;;;;;;;3.90;2.90;;;;;;;;;;5058357;28;20445;-61
2023/06/19 01:04:42;;;;;;;3.67;3.20;;;;;;;;;;5032134;28;20395;-61
2023/06/19 01:07:10;;;;;;;3.33;2.80;;;;;;;;;;5060561;28;20147;-61
2023/06/19 01:09:45;;;;;;;4.60;3.10;;;;;;;;;;5057215;28;20040;-61
2023/06/19 01:12:12;;;;;;;4.15;3.28;;;;;;;;;;5039850;28;20090;-61
2023/06/19 01:14:52;;;;;;;3.80;3.10;;;;;;;;;;5012254;28;20151;-61
2023/06/19 01:17:18;;;;;;;3.60;2.95;;;;;;;;;;5055637;28;20052;-61
2023/06/19 01:19:43;;;;;;;3.45;3.00;;;;;;;;;;5051350;28;20487;-61
2023/06/19 01:22:08;;;;;;;3.67;2.97;;;;;;;;;;5055709;28;20072;-61
2023/06/19 01:24:33;;;;;;;3.23;2.80;;;;;;;;;;5055888;28;20880;-60
2023/06/19 01:26:59;;;;;;;4.03;2.87;;;;;;;;;;5056572;28;20670;-61
2023/06/19 01:29:24;;;;;;;3.33;2.87;;;;;;;;;;5062090;28;21024;-61
2023/06/19 01:31:53;;;;;;;4.20;2.75;;;;;;;;;;5060592;28;20290;-61
2023/06/19 01:34:19;;;;;;;3.38;2.58;;;;;;;;;;5035855;28;20049;-61
2023/06/19 01:36:45;;;;;;;5.40;3.15;;;;;;;;;;5041845;28;20171;-61
2023/06/19 01:39:11;;;;;;;3.50;2.90;;;;;;;;;;5046982;28;20128;-61
2023/06/19 01:41:36;;;;;;;3.75;2.80;;;;;;;;;;5057004;28;20032;-61
2023/06/19 01:44:01;;;;;;;3.57;2.70;;;;;;;;;;5053924;28;20553;-61
2023/06/19 01:46:26;;;;;;;3.65;2.90;;;;;;;;;;5057143;28;20322;-61
2023/06/19 01:48:53;;;;;;;3.40;2.53;;;;;;;;;;5033081;28;20033;-61
2023/06/19 01:51:18;;;;;;;4.68;2.70;;;;;;;;;;5060330;28;20040;-60
2023/06/19 01:53:44;;;;;;;4.10;2.90;;;;;;;;;;5053541;28;20032;-61
2023/06/19 01:56:09;;;;;;;4.00;3.03;;;;;;;;;;5051473;28;20296;-61
2023/06/19 01:58:34;;;;;;;3.90;2.73;;;;;;;;;;5056007;28;20047;-61
2023/06/19 02:00:59;;;;;;;3.63;3.03;;;;;;;;;;5059590;28;20020;-61
2023/06/19 02:03:25;;;;;;;4.30;2.77;;;;;;;;;;5057162;28;20271;-61
2023/06/19 02:05:50;;;;;;;4.47;2.95;;;;;;;;;;5047726;28;20255;-61
2023/06/19 02:08:15;;;;;;;3.10;2.50;;;;;;;;;;5048863;28;20009;-61
2023/06/19 02:10:41;;;;;;;7.10;3.13;;;;;;;;;;5060769;28;20021;-61
2023/06/19 02:13:06;;;;;;;3.80;2.90;;;;;;;;;;5060591;28;20271;-61
2023/06/19 02:15:31;;;;;;;3.53;2.50;;;;;;;;;;5044768;28;20738;-61
2023/06/19 02:17:56;;;;;;;3.78;2.80;;;;;;;;;;5054851;28;20274;-61
2023/06/19 02:20:24;;;;;;;3.58;2.80;;;;;;;;;;5059255;28;20017;-61
2023/06/19 02:22:49;;;;;;;4.70;2.63;;;;;;;;;;5043959;28;20028;-62
2023/06/19 02:25:14;;;;;;;3.27;2.70;;;;;;;;;;5065477;28;20020;-61
2023/06/19 02:27:39;;;;;;;3.38;2.85;;;;;;;;;;5050766;28;20286;-61
2023/06/19 02:30:05;;;;;;;4.33;3.13;;;;;;;;;;5071897;28;20028;-61
2023/06/19 02:32:30;;;;;;;3.53;2.67;;;;;;;;;;5064192;28;20023;-64
2023/06/19 02:34:57;;;;;;;4.57;2.92;;;;;;;;;;5060579;28;20036;-61
2023/06/19 02:37:22;;;;;;;3.80;2.90;;;;;;;;;;5043545;28;20024;-63
2023/06/19 02:39:47;;;;;;;3.70;3.10;;;;;;;;;;5043107;28;20100;-61
2023/06/19 02:42:13;;;;;;;3.80;3.00;;;;;;;;;;5062499;28;20102;-64
2023/06/19 02:44:38;;;;;;;4.50;2.53;;;;;;;;;;5066016;28;20028;-61
2023/06/19 02:47:03;;;;;;;3.97;2.75;;;;;;;;;;5056545;28;20473;-61
2023/06/19 02:49:28;;;;;;;3.33;2.53;;;;;;;;;;5062498;28;20021;-61
2023/06/19 02:51:54;;;;;;;3.57;2.80;;;;;;;;;;5064026;28;20028;-61
2023/06/19 02:54:19;;;;;;;4.40;2.90;;;;;;;;;;5051863;28;20037;-62
2023/06/19 02:56:44;;;;;;;4.07;2.63;;;;;;;;;;5064906;28;20024;-61
2023/06/19 02:59:09;;;;;;;4.15;3.08;;;;;;;;;;5056299;28;20028;-62
2023/06/19 03:01:35;;;;;;;3.30;2.70;;;;;;;;;;5059651;28;20103;-62
2023/06/19 03:04:00;;;;;;;4.00;2.53;;;;;;;;;;5061444;28;20067;-62
2023/06/19 03:06:26;;;;;;;4.60;2.70;;;;;;;;;;5053827;28;20028;-62
2023/06/19 03:08:51;;;;;;;3.78;2.97;;;;;;;;;;5064917;28;20776;-62
2023/06/19 03:11:16;;;;;;;4.00;2.80;;;;;;;;;;5047173;28;20036;-62
2023/06/19 03:13:44;;;;;;;3.50;2.60;;;;;;;;;;5059441;28;20037;-62
2023/06/19 03:16:10;;;;;;;3.00;2.60;;;;;;;;;;5063810;28;20345;-62
2023/06/19 03:18:35;;;;;;;3.87;3.00;;;;;;;;;;5064679;28;20443;-61
2023/06/19 03:21:00;;;;;;;3.50;2.80;;;;;;;;;;5048807;28;20271;-61
2023/06/19 03:23:25;;;;;;;3.40;2.90;;;;;;;;;;5062084;28;20400;-62
2023/06/19 03:25:50;;;;;;;3.40;2.97;;;;;;;;;;5067901;28;20272;-62
2023/06/19 03:28:16;;;;;;;3.57;2.90;;;;;;;;;;5065266;28;20310;-63
2023/06/19 03:30:41;;;;;;;3.47;2.80;;;;;;;;;;5056076;28;20704;-66
2023/06/19 03:33:06;;;;;;;3.47;2.80;;;;;;;;;;5039345;28;20282;-65
2023/06/19 03:35:31;;;;;;;5.07;3.07;;;;;;;;;;5053157;28;20062;-65
2023/06/19 03:37:57;;;;;;;4.33;3.00;;;;;;;;;;5051803;28;20796;-63
2023/06/19 03:40:22;;;;;;;4.68;3.20;;;;;;;;;;5034297;28;20175;-63
2023/06/19 03:42:47;;;;;;;6.13;3.20;;;;;;;;;;5047816;28;20117;-64
2023/06/19 03:45:12;;;;;;;4.10;2.90;;;;;;;;;;5049286;28;20229;-64
2023/06/19 03:47:38;;;;;;;3.90;3.05;;;;;;;;;;5031006;28;21003;-63
2023/06/19 03:50:04;;;;;;;3.30;2.63;;;;;;;;;;5051709;28;20415;-63
2023/06/19 03:52:29;;;;;;;4.32;3.15;;;;;;;;;;5050598;28;20283;-62
2023/06/19 03:54:55;;;;;;;3.17;2.65;;;;;;;;;;5049177;28;20542;-63
2023/06/19 03:57:20;;;;;;;4.38;2.85;;;;;;;;;;5051398;28;20039;-62
2023/06/19 03:59:46;;;;;;;4.45;3.10;;;;;;;;;;5050066;28;20284;-64
2023/06/19 04:02:11;;;;;;;3.42;2.80;;;;;;;;;;5034650;28;20460;-63
2023/06/19 04:04:36;;;;;;;3.13;2.80;;;;;;;;;;5049436;28;20309;-63
2023/06/19 04:07:01;;;;;;;4.10;2.87;;;;;;;;;;5050116;28;20064;-64
2023/06/19 04:09:26;;;;;;;3.70;3.00;;;;;;;;;;5048901;28;20278;-64
2023/06/19 04:11:52;;;;;;;3.20;2.73;;;;;;;;;;5049939;28;20364;-61
2023/06/19 04:14:17;;;;;;;4.80;3.22;;;;;;;;;;5049482;28;20064;-61
2023/06/19 04:16:42;;;;;;;3.67;2.85;;;;;;;;;;5049012;28;20040;-63
2023/06/19 04:19:08;;;;;;;3.30;2.70;;;;;;;;;;5048421;28;20044;-62
2023/06/19 04:21:33;;;;;;;4.70;3.10;;;;;;;;;;5035640;28;20041;-63
2023/06/19 04:23:58;;;;;;;3.67;2.90;;;;;;;;;;5048463;28;20040;-62
2023/06/19 04:26:24;;;;;;;3.43;2.73;;;;;;;;;;5048360;28;20287;-63
2023/06/19 04:28:49;;;;;;;4.68;3.17;;;;;;;;;;5035542;28;20287;-62
2023/06/19 04:31:18;;;;;;;4.65;3.10;;;;;;;;;;5047241;28;20203;-63
2023/06/19 04:33:46;;;;;;;4.50;2.88;;;;;;;;;;5048226;28;20045;-62
2023/06/19 04:36:11;;;;;;;3.55;2.88;;;;;;;;;;5050785;28;20120;-64
2023/06/19 04:38:36;;;;;;;3.47;2.57;;;;;;;;;;5044111;28;20513;-63
2023/06/19 04:41:02;;;;;;;6.53;2.90;;;;;;;;;;5048435;28;20495;-64
2023/06/19 04:43:27;;;;;;;3.55;2.60;;;;;;;;;;5050021;28;20287;-62
2023/06/19 04:45:53;;;;;;;5.00;3.40;;;;;;;;;;5048039;28;20690;-62
2023/06/19 04:48:18;;;;;;;3.60;2.90;;;;;;;;;;5048624;28;20685;-63
2023/06/19 04:50:43;;;;;;;4.40;3.20;;;;;;;;;;5033952;28;20113;-62
2023/06/19 04:53:08;;;;;;;3.73;2.60;;;;;;;;;;5049255;28;20178;-62
2023/06/19 04:55:34;;;;;;;4.70;3.03;;;;;;;;;;5048714;28;20225;-62
2023/06/19 04:57:59;;;;;;;4.25;2.88;;;;;;;;;;5027989;28;20123;-63
2023/06/19 05:00:25;;;;;;;4.40;3.03;;;;;;;;;;5016153;28;20041;-62
2023/06/19 05:02:50;;;;;;;3.78;2.85;;;;;;;;;;5047291;28;20036;-62
2023/06/19 05:05:18;;;;;;;5.72;2.95;;;;;;;;;;5027377;28;20455;-62
2023/06/19 05:07:45;;;;;;;3.60;2.88;;;;;;;;;;5048303;28;20037;-63
2023/06/19 05:10:10;;;;;;;4.70;2.90;;;;;;;;;;5030986;28;20044;-63
2023/06/19 05:12:35;;;;;;;3.90;2.90;;;;;;;;;;5046983;28;20050;-62
2023/06/19 05:15:01;;;;;;;6.80;2.80;;;;;;;;;;5048420;28;20080;-63
2023/06/19 05:17:26;;;;;;;5.53;2.55;;;;;;;;;;5049048;28;20112;-64
2023/06/19 05:19:51;;;;;;;3.93;2.90;;;;;;;;;;5034740;28;20029;-63
2023/06/19 05:22:18;;;;;;;4.27;2.70;;;;;;;;;;5030093;28;20307;-61
2023/06/19 05:24:43;;;;;;;3.97;2.85;;;;;;;;;;5046658;28;20344;-62
2023/06/19 05:27:09;;;;;;;3.90;2.63;;;;;;;;;;5047241;28;20024;-62
2023/06/19 05:29:34;;;;;;;4.88;3.03;;;;;;;;;;5035229;28;20299;-63
2023/06/19 05:32:00;;;;;;;4.78;3.28;;;;;;;;;;5026741;28;20036;-62
2023/06/19 05:34:25;;;;;;;3.50;2.80;;;;;;;;;;5045302;28;20059;-62
2023/06/19 05:36:50;;;;;;;4.37;2.70;;;;;;;;;;5027907;28;20033;-64
2023/06/19 05:39:18;;;;;;;3.77;2.90;;;;;;;;;;5029837;28;21020;-63
2023/06/19 05:41:45;;;;;;;4.43;2.90;;;;;;;;;;5049452;28;20422;-62
2023/06/19 05:44:14;;;;;;;5.00;2.80;;;;;;;;;;5035448;28;20041;-62
2023/06/19 05:46:39;;;;;;;5.43;2.53;;;;;;;;;;5032843;28;20044;-62
2023/06/19 05:49:04;;;;;;;3.38;2.42;;;;;;;;;;5047482;28;20033;-62
2023/06/19 05:51:29;;;;;;;4.80;2.95;;;;;;;;;;5039828;28;20102;-65
2023/06/19 05:54:00;;;;;;;4.53;2.60;;;;;;;;;;5056847;28;20327;-66
2023/06/19 05:56:26;;;;;;;4.50;3.20;;;;;;;;;;5056752;28;20028;-64
2023/06/19 05:58:51;;;;;;;3.72;2.80;;;;;;;;;;5034728;28;20194;-66
2023/06/19 06:01:17;;;;;;;5.13;2.90;;;;;;;;;;5022098;28;20035;-65
2023/06/19 06:03:42;;;;;;;4.53;2.80;;;;;;;;;;5059131;28;20290;-68
2023/06/19 06:06:08;;;;;;;6.03;3.00;;;;;;;;;;5039986;28;20044;-68
2023/06/19 06:08:34;;;;;;;5.57;3.10;;;;;;;;;;5034904;28;20037;-63
2023/06/19 06:10:59;;;;;;;3.92;3.28;;;;;;;;;;5050657;28;20036;-62
2023/06/19 06:13:24;;;;;;;5.03;2.58;;;;;;;;;;5051332;28;20703;-64
2023/06/19 06:15:50;;;;;;;5.87;3.30;;;;;;;;;;5054295;28;20033;-67
2023/06/19 06:18:15;;;;;;;4.40;2.72;;;;;;;;;;5050851;28;21152;-66
2023/06/19 06:20:41;;;;;;;4.63;2.90;;;;;;;;;;5053717;28;20036;-64
2023/06/19 06:23:06;;;;;;;4.60;3.30;;;;;;;;;;5051197;28;20367;-65
2023/06/19 06:25:31;;;;;;;3.73;2.90;;;;;;;;;;5054614;28;21109;-64
2023/06/19 06:27:56;;;;;;;5.50;2.73;;;;;;;;;;5055853;28;20287;-61
2023/06/19 06:30:23;;;;;;;4.40;2.70;;;;;;;;;;5051992;28;20041;-64
2023/06/19 06:32:48;;;;;;;4.82;3.13;;;;;;;;;;5052394;28;20363;-63
2023/06/19 06:35:14;;;;;;;5.00;3.30;;;;;;;;;;5024139;28;20075;-63
2023/06/19 06:37:40;;;;;;;8.68;3.00;;;;;;;;;;5038249;28;20124;-64
2023/06/19 06:40:09;;;;;;;5.85;3.10;;;;;;;;;;5037298;28;20789;-65
2023/06/19 06:42:34;;;;;;;5.78;3.20;;;;;;;;;;5040361;28;20041;-62
2023/06/19 06:44:59;;;;;;;5.23;3.10;;;;;;;;;;5032782;28;20532;-63
2023/06/19 06:47:25;;;;;;;3.92;2.80;;;;;;;;;;5054481;28;20041;-65
2023/06/19 06:49:50;;;;;;;4.73;3.00;;;;;;;;;;5053196;28;20067;-64
2023/06/19 06:52:15;;;;;;;4.45;3.30;;;;;;;;;;5049905;28;20287;-65
2023/06/19 06:54:40;;;;;;;5.57;2.72;;;;;;;;;;5030442;28;21133;-65
2023/06/19 06:57:06;;;;;;;5.97;3.23;;;;;;;;;;5051571;28;20593;-66
2023/06/19 06:59:31;;;;;;;4.57;2.57;;;;;;;;;;5033611;28;20514;-66
2023/06/19 07:01:56;;;;;;;5.17;3.13;;;;;;;;;;5036863;28;20361;-67
2023/06/19 07:04:21;;;;;;;4.60;2.97;;;;;;;;;;5031909;28;20035;-67
2023/06/19 07:06:47;;;;;;;6.70;3.13;;;;;;;;;;5031958;28;20041;-66
2023/06/19 07:09:12;;;;;;;5.90;2.70;;;;;;;;;;5021332;28;20040;-64
2023/06/19 07:11:37;;;;;;;4.40;2.97;;;;;;;;;;5051040;28;20754;-65
2023/06/19 07:14:03;;;;;;;7.70;3.17;;;;;;;;;;5048709;28;20315;-65
2023/06/19 07:16:28;;;;;;;4.97;3.20;;;;;;;;;;5030108;28;20131;-63
2023/06/19 07:18:53;;;;;;;4.40;3.05;;;;;;;;;;5050707;28;20043;-65
2023/06/19 07:21:19;;;;;;;5.53;3.00;;;;;;;;;;5051429;28;20063;-64
2023/06/19 07:23:44;;;;;;;6.20;3.53;;;;;;;;;;5031640;28;20091;-66
2023/06/19 07:26:10;;;;;;;4.60;2.95;;;;;;;;;;5020454;28;20037;-64
2023/06/19 07:28:36;;;;;;;5.23;2.83;;;;;;;;;;5050481;28;20462;-62
2023/06/19 07:31:01;;;;;;;3.95;2.80;;;;;;;;;;5050114;28;20051;-65
2023/06/19 07:33:27;;;;;;;6.65;3.10;;;;;;;;;;5051049;28;20724;-64
2023/06/19 07:35:52;;;;;;;4.57;2.83;;;;;;;;;;5033051;28;20200;-67
2023/06/19 07:38:17;;;;;;;5.20;2.90;;;;;;;;;;5030133;28;20056;-63
2023/06/19 07:40:42;;;;;;;4.10;3.27;;;;;;;;;;5048853;28;20291;-64
2023/06/19 07:43:08;;;;;;;4.82;2.90;;;;;;;;;;5049921;28;20029;-65
2023/06/19 07:45:33;;;;;;;5.73;2.90;;;;;;;;;;5049952;28;20455;-65
2023/06/19 07:47:58;;;;;;;4.13;3.03;;;;;;;;;;5057001;28;20295;-61
2023/06/19 07:50:24;;;;;;;4.88;3.00;;;;;;;;;;5040231;28;20306;-63
2023/06/19 07:52:49;;;;;;;3.72;2.50;;;;;;;;;;5056449;28;20128;-64
2023/06/19 07:55:14;;;;;;;5.97;3.20;;;;;;;;;;5055871;28;20044;-67
2023/06/19 07:57:39;;;;;;;4.35;3.13;;;;;;;;;;5052422;28;20071;-67
2023/06/19 08:00:10;;;;;;;4.80;2.90;;;;;;;;;;5037217;28;20043;-61
2023/06/19 08:02:35;;;;;;;4.00;2.90;;;;;;;;;;5037229;28;20306;-62
2023/06/19 08:05:01;;;;;;;3.67;3.15;;;;;;;;;;5053182;28;20033;-64
2023/06/19 08:07:26;;;;;;;5.97;2.90;;;;;;;;;;5055848;28;20064;-62
2023/06/19 08:09:51;;;;;;;5.13;3.00;;;;;;;;;;5057713;28;20085;-64
2023/06/19 08:12:17;;;;;;;4.60;3.03;;;;;;;;;;5056293;28;20033;-65
2023/06/19 08:14:42;;;;;;;4.27;3.23;;;;;;;;;;5034684;28;20049;-65
2023/06/19 08:17:07;;;;;;;3.63;2.97;;;;;;;;;;5053490;28;20398;-66
2023/06/19 08:19:33;;;;;;;4.50;2.70;;;;;;;;;;5052381;28;20145;-62
2023/06/19 08:21:58;;;;;;;4.32;2.65;;;;;;;;;;5049940;28;20514;-63
2023/06/19 08:24:24;;;;;;;3.25;2.80;;;;;;;;;;5049007;28;20033;-62
2023/06/19 08:26:50;;;;;;;4.10;3.10;;;;;;;;;;5050740;28;20037;-64
2023/06/19 08:29:16;;;;;;;4.10;2.95;;;;;;;;;;5037178;28;20047;-63
2023/06/19 08:31:41;;;;;;;4.63;2.95;;;;;;;;;;5032390;28;20048;-63
2023/06/19 08:34:09;;;;;;;3.87;2.70;;;;;;;;;;5040187;28;20129;-63
2023/06/19 08:36:34;;;;;;;3.97;2.92;;;;;;;;;;5057592;28;20033;-66
2023/06/19 08:38:59;;;;;;;4.97;2.85;;;;;;;;;;5055687;28;20117;-67
2023/06/19 08:41:25;;;;;;;4.03;3.00;;;;;;;;;;5038978;28;20696;-68
2023/06/19 08:43:50;;;;;;;3.67;2.50;;;;;;;;;;5032525;28;20302;-65
2023/06/19 08:46:17;;;;;;;4.23;2.63;;;;;;;;;;5051134;28;20488;-68
2023/06/19 08:48:42;;;;;;;4.20;2.75;;;;;;;;;;5051273;28;20032;-67
2023/06/19 08:51:08;;;;;;;4.53;2.80;;;;;;;;;;5052181;28;20952;-62
2023/06/19 08:53:34;;;;;;;4.28;2.90;;;;;;;;;;5052247;28;20060;-63
2023/06/19 08:56:00;;;;;;;4.70;2.97;;;;;;;;;;5018665;28;20075;-68
2023/06/19 08:58:26;;;;;;;3.55;2.70;;;;;;;;;;5048037;28;20087;-66
2023/06/19 09:00:51;;;;;;;3.00;2.60;;;;;;;;;;5047815;28;20491;-63
2023/06/19 09:03:19;;;;;;;3.90;2.73;;;;;;;;;;5051858;28;20036;-65
2023/06/19 09:05:49;;;;;;;4.22;3.00;;;;;;;;;;5053308;28;20295;-67
2023/06/19 09:08:15;;;;;;;;;;;;;;;;;;5048435;28;20040;-65
2023/06/19 09:10:41;;;;;;;5.95;2.88;;;;;;;;;;5048072;28;19916;-64
2023/06/19 09:13:07;;;;;;;5.30;2.60;;;;;;;;;;5021040;28;20620;-63
2023/06/19 09:15:33;;;;;;;5.75;2.53;;;;;;;;;;5057558;28;20834;-66
2023/06/19 09:17:59;;;;;;;4.32;2.63;;;;;;;;;;5050864;28;20039;-63
2023/06/19 09:20:28;;;;;;;4.30;2.83;;;;;;;;;;5044656;28;20477;-64
2023/06/19 09:22:57;;;;;;;3.90;2.90;;;;;;;;;;5042642;28;20543;-64
2023/06/19 09:25:23;;;;;;;3.33;2.50;;;;;;;;;;5028542;28;20048;-65
2023/06/19 09:27:48;;;;;;;4.80;2.60;;;;;;;;;;5055137;28;20770;-68
2023/06/19 09:30:15;;;;;;;4.15;2.50;;;;;;;;;;5042398;28;20048;-64
2023/06/19 09:32:40;;;;;;;4.78;2.90;;;;;;;;;;5032167;28;20430;-66
2023/06/19 09:35:05;;;;;;;4.03;2.50;;;;;;;;;;5046088;28;20044;-66
2023/06/19 09:37:30;;;;;;;3.08;2.70;;;;;;;;;;5034519;28;20660;-64
2023/06/19 09:40:11;;;;;;;4.87;2.70;;;;;;;;;;5028116;28;20036;-68
2023/06/19 09:42:37;;;;;;;3.72;2.50;;;;;;;;;;5028728;28;20863;-68
2023/06/19 09:45:06;;;;;;;4.63;2.67;;;;;;;;;;5027527;28;20027;-64
2023/06/19 09:47:36;;;;;;;3.63;2.60;;;;;;;;;;5030189;28;20017;-67
2023/06/19 09:50:02;;;;;;;5.25;2.92;;;;;;;;;;5049432;28;20025;-63
2023/06/19 09:52:28;;;;;;;4.18;3.08;;;;;;;;;;5046772;28;20093;-65
2023/06/19 09:54:53;;;;;;;4.10;2.40;;;;;;;;;;5048080;28;20037;-65
2023/06/19 09:57:19;;;;;;;4.55;2.70;;;;;;;;;;5047935;28;20745;-63
2023/06/19 09:59:49;;;;;;;4.40;3.17;;;;;;;;;;5047844;28;20021;-63
2023/06/19 10:02:15;;;;;;;4.18;3.10;;;;;;;;;;5013727;28;20052;-65
2023/06/19 10:04:45;;;;;;;6.30;3.13;;;;;;;;;;5026847;28;20041;-64
2023/06/19 10:07:17;;;;;;;3.90;2.97;;;;;;;;;;5047048;28;20037;-65
2023/06/19 10:09:54;;;;;;;5.80;3.20;;;;;;;;;;5034614;28;20037;-67
2023/06/19 10:12:19;;;;;;;3.90;2.60;;;;;;;;;;5047202;28;20041;-67
2023/06/19 10:14:46;;;;;;;11.70;3.10;;;;;;;;;;5047578;28;20052;-63
2023/06/19 10:17:12;;;;;;;6.57;3.20;;;;;;;;;;5027629;28;20052;-63
2023/06/19 10:19:37;;;;;;;7.53;3.60;;;;;;;;;;5047052;28;20057;-63
2023/06/19 10:22:03;;;;;;;5.57;3.33;;;;;;;;;;5047077;28;20768;-63
2023/06/19 10:24:28;;;;;;;4.75;2.75;;;;;;;;;;5025979;28;20068;-63
2023/06/19 10:27:00;;;;;;;4.10;3.10;;;;;;;;;;5045797;28;20032;-63
2023/06/19 10:29:26;;;;;;;3.58;2.60;;;;;;;;;;5032848;28;20028;-62
2023/06/19 10:31:52;;;;;;;3.47;2.58;;;;;;;;;;5048412;28;20166;-63
2023/06/19 10:34:17;;;;;;;5.40;2.50;;;;;;;;;;5049609;28;21111;-62
2023/06/19 10:36:42;;;;;;;6.80;2.97;;;;;;;;;;5048039;28;20036;-63
2023/06/19 10:39:08;;;;;;;5.00;2.77;;;;;;;;;;5048051;28;20299;-61
2023/06/19 10:41:34;;;;;;;5.40;3.15;;;;;;;;;;5054221;28;20049;-65
2023/06/19 10:44:05;;;;;;;3.53;2.50;;;;;;;;;;5051206;28;20067;-64
2023/06/19 10:46:32;;;;;;;5.47;2.88;;;;;;;;;;5049769;28;20991;-63
2023/06/19 10:49:00;;;;;;;5.20;2.58;;;;;;;;;;5050307;28;20044;-65
2023/06/19 10:51:26;;;;;;;4.32;2.90;;;;;;;;;;5050269;28;20037;-63
2023/06/19 10:53:53;;;;;;;3.58;2.83;;;;;;;;;;5050093;28;20086;-63
2023/06/19 10:56:19;;;;;;;4.47;3.03;;;;;;;;;;5050550;28;20632;-64
2023/06/19 10:58:44;;;;;;;5.05;3.38;;;;;;;;;;5038993;28;20029;-65
2023/06/19 11:01:10;;;;;;;4.33;3.10;;;;;;;;;;5050332;28;20130;-65
2023/06/19 11:03:35;;;;;;;3.35;2.90;;;;;;;;;;5038831;28;20055;-63
2023/06/19 11:06:00;;;;;;;3.77;2.80;;;;;;;;;;5030805;28;20055;-64
2023/06/19 11:08:26;;;;;;;4.00;2.97;;;;;;;;;;5050094;28;20276;-64
2023/06/19 11:10:51;;;;;;;5.17;2.90;;;;;;;;;;5037528;28;20485;-65
2023/06/19 11:13:17;;;;;;;4.50;2.93;;;;;;;;;;5036764;28;20292;-66
2023/06/19 11:15:42;;;;;;;3.60;3.20;;;;;;;;;;5057468;28;20502;-66
2023/06/19 11:18:07;;;;;;;4.43;2.73;;;;;;;;;;5053512;28;20945;-65
2023/06/19 11:20:45;;;;;;;6.80;3.25;;;;;;;;;;5052306;28;20434;-65
2023/06/19 11:23:10;;;;;;;3.60;2.80;;;;;;;;;;5031283;28;20037;-65
2023/06/19 11:25:39;;;;;;;3.28;2.60;;;;;;;;;;5030844;28;20037;-66
2023/06/19 11:28:04;;;;;;;5.75;3.08;;;;;;;;;;5048934;28;20045;-65
2023/06/19 11:30:30;;;;;;;3.33;2.70;;;;;;;;;;5036652;28;20046;-65
2023/06/19 11:32:56;;;;;;;3.75;2.90;;;;;;;;;;5059927;28;20510;-65
2023/06/19 11:35:21;;;;;;;3.87;2.80;;;;;;;;;;5060523;28;20040;-66
2023/06/19 11:37:48;;;;;;;4.50;2.90;;;;;;;;;;5056543;28;20045;-65
2023/06/19 11:40:15;;;;;;;6.43;3.00;;;;;;;;;;5047990;28;20399;-64
2023/06/19 11:42:51;;;;;;;4.18;3.15;;;;;;;;;;5063884;28;20040;-65
2023/06/19 11:45:17;;;;;;;3.00;2.50;;;;;;;;;;5063296;28;20097;-64
2023/06/19 11:47:43;;;;;;;4.30;3.10;;;;;;;;;;5063233;28;20076;-64
2023/06/19 11:50:08;;;;;;;4.50;2.88;;;;;;;;;;5055112;28;20044;-65
2023/06/19 11:52:34;;;;;;;4.32;3.15;;;;;;;;;;5054790;28;20033;-64
2023/06/19 11:54:59;;;;;;;4.63;3.00;;;;;;;;;;5064042;28;20064;-65
2023/06/19 11:57:24;;;;;;;4.30;3.00;;;;;;;;;;5060557;28;20830;-64
2023/06/19 11:59:49;;;;;;;4.03;2.93;;;;;;;;;;5036719;28;20044;-63
2023/06/19 12:02:15;;;;;;;5.60;3.40;;;;;;;;;;5059114;28;20032;-65
2023/06/19 12:04:40;;;;;;;3.63;3.03;;;;;;;;;;5063836;28;20055;-64
2023/06/19 12:07:06;;;;;;;3.57;2.90;;;;;;;;;;5044712;28;20044;-64
2023/06/19 12:09:34;;;;;;;4.55;3.20;;;;;;;;;;5042154;28;20037;-66
2023/06/19 12:12:00;;;;;;;3.45;2.85;;;;;;;;;;5063818;28;20029;-68
2023/06/19 12:14:26;;;;;;;3.92;3.20;;;;;;;;;;5052203;28;20421;-66
2023/06/19 12:16:51;;;;;;;3.50;2.90;;;;;;;;;;5058357;28;20037;-68
2023/06/19 12:19:16;;;;;;;5.33;2.83;;;;;;;;;;5064150;28;20709;-65
2023/06/19 12:21:41;;;;;;;4.67;2.70;;;;;;;;;;5064013;28;20469;-64
2023/06/19 12:24:07;;;;;;;4.00;3.30;;;;;;;;;;5044755;28;20341;-64
2023/06/19 12:26:36;;;;;;;3.40;2.63;;;;;;;;;;5045293;28;20056;-66
2023/06/19 12:29:01;;;;;;;3.63;2.83;;;;;;;;;;5040275;28;20071;-65
2023/06/19 12:31:26;;;;;;;3.63;2.90;;;;;;;;;;5067163;28;20036;-65
2023/06/19 12:33:52;;;;;;;3.63;3.20;;;;;;;;;;5050929;28;20517;-66
2023/06/19 12:36:17;;;;;;;4.33;3.10;;;;;;;;;;5042495;28;20024;-66
2023/06/19 12:38:42;;;;;;;4.03;3.03;;;;;;;;;;5057628;28;20546;-66
2023/06/19 12:41:07;;;;;;;4.50;2.80;;;;;;;;;;5064191;28;20636;-68
2023/06/19 12:43:33;;;;;;;3.90;3.03;;;;;;;;;;5055873;28;20294;-66
2023/06/19 12:46:01;;;;;;;3.97;2.95;;;;;;;;;;5026448;28;20037;-67
2023/06/19 12:48:26;;;;;;;3.85;2.65;;;;;;;;;;5065140;28;20036;-65
2023/06/19 12:50:52;;;;;;;4.07;3.00;;;;;;;;;;5062549;28;20033;-67
2023/06/19 12:53:17;;;;;;;5.73;3.20;;;;;;;;;;5065897;28;20036;-64
2023/06/19 12:55:42;;;;;;;3.40;2.87;;;;;;;;;;5055848;28;20102;-68
2023/06/19 12:58:08;;;;;;;3.33;2.97;;;;;;;;;;5065628;28;20161;-65
2023/06/19 13:00:33;;;;;;;3.92;3.08;;;;;;;;;;5049663;28;20040;-67
2023/06/19 13:02:59;;;;;;;4.18;2.72;;;;;;;;;;5064471;28;20055;-68
2023/06/19 13:05:25;;;;;;;4.50;3.13;;;;;;;;;;5057476;28;20447;-63
2023/06/19 13:07:50;;;;;;;4.50;2.70;;;;;;;;;;5025205;28;20063;-66
2023/06/19 13:10:15;;;;;;;4.97;3.20;;;;;;;;;;5065778;28;20044;-66
2023/06/19 13:12:40;;;;;;;4.03;2.77;;;;;;;;;;5044517;28;20049;-66
2023/06/19 13:15:06;;;;;;;4.37;2.97;;;;;;;;;;5039398;28;20350;-64
2023/06/19 13:17:31;;;;;;;3.90;3.13;;;;;;;;;;5040436;28;20318;-65
2023/06/19 13:19:57;;;;;;;4.37;3.10;;;;;;;;;;5051807;28;20447;-66
2023/06/19 13:22:22;;;;;;;4.45;3.33;;;;;;;;;;5045927;28;20517;-64
2023/06/19 13:24:47;;;;;;;4.25;3.13;;;;;;;;;;5049772;28;21995;-66
2023/06/19 13:27:13;;;;;;;4.07;3.17;;;;;;;;;;5039597;28;20036;-67
2023/06/19 13:29:40;;;;;;;6.83;3.40;;;;;;;;;;5018781;28;20426;-64
2023/06/19 13:32:05;;;;;;;5.10;3.22;;;;;;;;;;5048389;28;20701;-63
2023/06/19 13:34:31;;;;;;;4.30;2.83;;;;;;;;;;5017779;28;20120;-62
2023/06/19 13:36:56;;;;;;;5.40;3.00;;;;;;;;;;5053781;28;20040;-62
2023/06/19 13:39:21;;;;;;;3.83;2.88;;;;;;;;;;5049238;28;20353;-65
2023/06/19 13:41:47;;;;;;;4.80;2.90;;;;;;;;;;5048282;28;20526;-65
2023/06/19 13:44:12;;;;;;;4.18;2.97;;;;;;;;;;5047757;28;20042;-64
2023/06/19 13:46:37;;;;;;;3.72;3.03;;;;;;;;;;5028853;28;20481;-64
2023/06/19 13:49:03;;;;;;;3.60;2.80;;;;;;;;;;5046436;28;20043;-64
2023/06/19 13:51:28;;;;;;;3.60;2.67;;;;;;;;;;5047652;28;20029;-65
2023/06/19 13:53:54;;;;;;;4.07;2.90;;;;;;;;;;5053308;28;20156;-63
2023/06/19 13:56:19;;;;;;;5.00;2.83;;;;;;;;;;5050224;28;20047;-65
2023/06/19 13:58:45;;;;;;;5.38;3.35;;;;;;;;;;5032492;28;20031;-64
2023/06/19 14:01:10;;;;;;;5.30;3.10;;;;;;;;;;5035449;28;20027;-64
2023/06/19 14:03:36;;;;;;;5.18;3.30;;;;;;;;;;5053987;28;20403;-63
2023/06/19 14:06:01;;;;;;;5.60;3.13;;;;;;;;;;5033934;28;20483;-64
2023/06/19 14:08:27;;;;;;;4.13;3.20;;;;;;;;;;5053140;28;20019;-64
2023/06/19 14:10:52;;;;;;;3.60;2.80;;;;;;;;;;5052699;28;20029;-63
2023/06/19 14:13:17;;;;;;;3.80;2.63;;;;;;;;;;5017966;28;20024;-63
2023/06/19 14:15:43;;;;;;;3.70;2.80;;;;;;;;;;5017572;28;20614;-63
2023/06/19 14:18:08;;;;;;;4.97;2.85;;;;;;;;;;5050907;28;20297;-63
2023/06/19 14:20:33;;;;;;;3.70;2.60;;;;;;;;;;5037951;28;20668;-62
2023/06/19 14:22:59;;;;;;;4.10;2.88;;;;;;;;;;5049373;28;20032;-63
2023/06/19 14:25:24;;;;;;;4.40;3.03;;;;;;;;;;5052292;28;22016;-63
2023/06/19 14:27:49;;;;;;;4.75;2.97;;;;;;;;;;5037133;28;20032;-63
2023/06/19 14:30:14;;;;;;;3.93;2.80;;;;;;;;;;5019000;28;20021;-61
2023/06/19 14:32:40;;;;;;;3.90;2.70;;;;;;;;;;5038833;28;20706;-61
2023/06/19 14:35:05;;;;;;;4.00;2.60;;;;;;;;;;5050269;28;20033;-63